Terminal Aerodrome Forecast
Issued by NWS

Home | Current Version | Previous Version | Text Only | Print | Product List | Glossary On
Versions: 1 2 3 4 5 6 7 8 9 10 11 12 13 14 15 16
330
FTUS45 KGGW 302155 AAA
TAFSDY
TAF AMD
KSDY 302155Z 3022/3118 32008KT 6SM -SHRA BR SCT015 OVC035
      TEMPO 3022/3024 3SM SHRA BKN015
     FM310000 30008KT P6SM -SHRA BKN060
     FM310900 28012KT P6SM VCSH BKN015
     FM311200 27010KT P6SM -SHRA BKN007=

USA.gov is the U.S. government's official web portal to all federal, state and local government web resources and services.